Matherville, Mississippi
Current Conditions -  °F | °C
As of 5:58 PM on Tuesday 25 Nov 2014 (Local Time) from KMEI Reporting Station
Overcast Overcast  
Wind Chill: 44°   Ceiling: 11000
Heat Index: 48°   Visibility: 10mi
Dew Point: 27°   Wind: 8mph
Humidity: 44%   Direction: 310°NW
Pressure: 30.17"   Gusts: NA
Location:  31.9032°N, 88.7117°W
Report Text: KMEI 252358Z 31007KT 10SM OVC110 09/M03 A3017 RMK AO2 SLP215 T00891028 10144 20089 51023
Loading
Personal Weather Stations






























Interactive Weather Map New forecast layout! Learn more

10-Day Weather Forecast

Advertisements
Track Severe Weather on mobile